sensor_id;sensor_type;location;lat;lon;timestamp;P1;durP1;ratioP1;P2;durP2;ratioP2
31095;SDS011;17749;51.962;8.560;2023-04-30T05:02:46;10.48;;;5.95;;
31095;SDS011;17749;51.962;8.560;2023-04-30T05:05:14;12.40;;;5.78;;
31095;SDS011;17749;51.962;8.560;2023-04-30T05:07:41;10.73;;;5.55;;
31095;SDS011;17749;51.962;8.560;2023-04-30T05:10:08;11.15;;;5.70;;
31095;SDS011;17749;51.962;8.560;2023-04-30T05:12:35;9.98;;;5.78;;
31095;SDS011;17749;51.962;8.560;2023-04-30T05:15:02;8.32;;;5.43;;
31095;SDS011;17749;51.962;8.560;2023-04-30T05:17:29;8.68;;;5.65;;
31095;SDS011;17749;51.962;8.560;2023-04-30T05:19:56;9.23;;;5.63;;
31095;SDS011;17749;51.962;8.560;2023-04-30T05:22:23;10.18;;;5.30;;
31095;SDS011;17749;51.962;8.560;2023-04-30T05:24:50;10.30;;;5.88;;
31095;SDS011;17749;51.962;8.560;2023-04-30T05:27:18;13.05;;;6.00;;
31095;SDS011;17749;51.962;8.560;2023-04-30T05:29:45;9.05;;;5.40;;
31095;SDS011;17749;51.962;8.560;2023-04-30T05:32:12;12.38;;;5.82;;
31095;SDS011;17749;51.962;8.560;2023-04-30T05:34:38;11.85;;;5.70;;
31095;SDS011;17749;51.962;8.560;2023-04-30T05:37:05;10.73;;;5.47;;
31095;SDS011;17749;51.962;8.560;2023-04-30T05:39:32;11.43;;;5.80;;
31095;SDS011;17749;51.962;8.560;2023-04-30T05:41:59;11.05;;;5.68;;
31095;SDS011;17749;51.962;8.560;2023-04-30T05:44:28;10.60;;;6.35;;
31095;SDS011;17749;51.962;8.560;2023-04-30T05:46:55;19.30;;;5.90;;
31095;SDS011;17749;51.962;8.560;2023-04-30T05:49:22;12.27;;;5.47;;
31095;SDS011;17749;51.962;8.560;2023-04-30T05:51:49;11.73;;;6.00;;
31095;SDS011;17749;51.962;8.560;2023-04-30T05:54:16;11.52;;;5.53;;
31095;SDS011;17749;51.962;8.560;2023-04-30T05:56:43;10.63;;;5.68;;
31095;SDS011;17749;51.962;8.560;2023-04-30T05:59:10;16.45;;;5.88;;
31095;SDS011;17749;51.962;8.560;2023-04-30T06:01:37;16.17;;;5.53;;
31095;SDS011;17749;51.962;8.560;2023-04-30T06:04:04;11.20;;;5.15;;
31095;SDS011;17749;51.962;8.560;2023-04-30T06:06:31;11.18;;;4.70;;
31095;SDS011;17749;51.962;8.560;2023-04-30T06:08:58;9.65;;;4.40;;
31095;SDS011;17749;51.962;8.560;2023-04-30T06:11:25;14.02;;;5.20;;
31095;SDS011;17749;51.962;8.560;2023-04-30T06:13:52;12.77;;;5.10;;
31095;SDS011;17749;51.962;8.560;2023-04-30T06:16:19;9.20;;;4.75;;
31095;SDS011;17749;51.962;8.560;2023-04-30T06:18:46;9.18;;;4.80;;
31095;SDS011;17749;51.962;8.560;2023-04-30T06:21:13;10.27;;;5.05;;
31095;SDS011;17749;51.962;8.560;2023-04-30T06:23:40;11.05;;;4.85;;
31095;SDS011;17749;51.962;8.560;2023-04-30T06:26:07;15.38;;;5.40;;
31095;SDS011;17749;51.962;8.560;2023-04-30T06:28:33;12.27;;;5.25;;
31095;SDS011;17749;51.962;8.560;2023-04-30T06:31:00;8.20;;;4.60;;
31095;SDS011;17749;51.962;8.560;2023-04-30T06:33:27;7.72;;;3.47;;
31095;SDS011;17749;51.962;8.560;2023-04-30T06:35:54;10.40;;;3.45;;
31095;SDS011;17749;51.962;8.560;2023-04-30T06:38:21;6.32;;;3.72;;
31095;SDS011;17749;51.962;8.560;2023-04-30T06:40:48;10.80;;;3.58;;
31095;SDS011;17749;51.962;8.560;2023-04-30T06:43:15;7.55;;;2.85;;
31095;SDS011;17749;51.962;8.560;2023-04-30T06:45:42;7.05;;;3.00;;
31095;SDS011;17749;51.962;8.560;2023-04-30T06:48:09;11.25;;;3.00;;
31095;SDS011;17749;51.962;8.560;2023-04-30T06:50:36;8.65;;;2.47;;
31095;SDS011;17749;51.962;8.560;2023-04-30T06:53:10;8.50;;;2.90;;
31095;SDS011;17749;51.962;8.560;2023-04-30T06:55:38;6.70;;;2.88;;
31095;SDS011;17749;51.962;8.560;2023-04-30T06:58:06;8.75;;;2.90;;
31095;SDS011;17749;51.962;8.560;2023-04-30T07:00:33;10.55;;;3.17;;
31095;SDS011;17749;51.962;8.560;2023-04-30T07:03:00;9.95;;;3.00;;
31095;SDS011;17749;51.962;8.560;2023-04-30T07:05:29;8.52;;;2.83;;
31095;SDS011;17749;51.962;8.560;2023-04-30T07:07:56;16.98;;;3.35;;
31095;SDS011;17749;51.962;8.560;2023-04-30T07:10:24;8.88;;;3.20;;
31095;SDS011;17749;51.962;8.560;2023-04-30T07:12:51;7.82;;;2.55;;
31095;SDS011;17749;51.962;8.560;2023-04-30T07:15:18;8.23;;;2.70;;
31095;SDS011;17749;51.962;8.560;2023-04-30T07:17:45;9.60;;;3.47;;
31095;SDS011;17749;51.962;8.560;2023-04-30T07:20:12;7.45;;;3.47;;
31095;SDS011;17749;51.962;8.560;2023-04-30T07:22:42;10.43;;;3.03;;
31095;SDS011;17749;51.962;8.560;2023-04-30T07:25:12;11.40;;;2.83;;
31095;SDS011;17749;51.962;8.560;2023-04-30T07:27:39;8.18;;;2.90;;
31095;SDS011;17749;51.962;8.560;2023-04-30T07:30:06;5.57;;;2.40;;
31095;SDS011;17749;51.962;8.560;2023-04-30T07:32:36;8.73;;;2.85;;
31095;SDS011;17749;51.962;8.560;2023-04-30T07:35:03;6.80;;;2.80;;
31095;SDS011;17749;51.962;8.560;2023-04-30T07:37:31;9.70;;;2.63;;
31095;SDS011;17749;51.962;8.560;2023-04-30T07:40:01;5.45;;;2.53;;
31095;SDS011;17749;51.962;8.560;2023-04-30T07:42:29;12.07;;;3.45;;
31095;SDS011;17749;51.962;8.560;2023-04-30T07:44:56;10.40;;;3.00;;
31095;SDS011;17749;51.962;8.560;2023-04-30T07:47:22;5.28;;;2.35;;
31095;SDS011;17749;51.962;8.560;2023-04-30T07:49:51;8.82;;;3.40;;
31095;SDS011;17749;51.962;8.560;2023-04-30T07:52:18;6.07;;;2.58;;
31095;SDS011;17749;51.962;8.560;2023-04-30T07:54:45;6.63;;;2.60;;
31095;SDS011;17749;51.962;8.560;2023-04-30T07:57:11;10.27;;;2.85;;
31095;SDS011;17749;51.962;8.560;2023-04-30T07:59:38;10.60;;;3.60;;
31095;SDS011;17749;51.962;8.560;2023-04-30T08:02:06;7.57;;;2.70;;
31095;SDS011;17749;51.962;8.560;2023-04-30T08:04:34;6.47;;;2.83;;
31095;SDS011;17749;51.962;8.560;2023-04-30T08:07:01;8.90;;;2.97;;
31095;SDS011;17749;51.962;8.560;2023-04-30T08:09:28;7.07;;;2.72;;
31095;SDS011;17749;51.962;8.560;2023-04-30T08:11:54;8.60;;;3.13;;
31095;SDS011;17749;51.962;8.560;2023-04-30T08:14:21;4.25;;;2.25;;
31095;SDS011;17749;51.962;8.560;2023-04-30T08:16:48;5.15;;;2.28;;
31095;SDS011;17749;51.962;8.560;2023-04-30T08:19:15;13.00;;;3.03;;
31095;SDS011;17749;51.962;8.560;2023-04-30T08:21:42;5.38;;;2.85;;
31095;SDS011;17749;51.962;8.560;2023-04-30T08:24:09;10.73;;;2.72;;
31095;SDS011;17749;51.962;8.560;2023-04-30T08:26:36;8.90;;;2.50;;
31095;SDS011;17749;51.962;8.560;2023-04-30T08:29:03;7.88;;;2.88;;
31095;SDS011;17749;51.962;8.560;2023-04-30T08:31:30;9.25;;;2.60;;
31095;SDS011;17749;51.962;8.560;2023-04-30T08:33:57;5.32;;;2.45;;
31095;SDS011;17749;51.962;8.560;2023-04-30T08:36:24;8.93;;;3.00;;
31095;SDS011;17749;51.962;8.560;2023-04-30T08:38:52;4.57;;;2.38;;
31095;SDS011;17749;51.962;8.560;2023-04-30T08:41:19;8.68;;;2.08;;
31095;SDS011;17749;51.962;8.560;2023-04-30T08:43:53;8.63;;;2.92;;
31095;SDS011;17749;51.962;8.560;2023-04-30T08:46:25;4.63;;;2.40;;
31095;SDS011;17749;51.962;8.560;2023-04-30T08:48:54;6.78;;;2.47;;
31095;SDS011;17749;51.962;8.560;2023-04-30T08:51:21;4.45;;;2.20;;
31095;SDS011;17749;51.962;8.560;2023-04-30T08:53:49;4.82;;;2.20;;
31095;SDS011;17749;51.962;8.560;2023-04-30T08:56:16;7.38;;;2.80;;
31095;SDS011;17749;51.962;8.560;2023-04-30T08:58:43;7.40;;;2.40;;
31095;SDS011;17749;51.962;8.560;2023-04-30T09:01:10;7.95;;;3.03;;
31095;SDS011;17749;51.962;8.560;2023-04-30T09:03:37;6.43;;;2.75;;
31095;SDS011;17749;51.962;8.560;2023-04-30T09:06:04;7.07;;;2.60;;
31095;SDS011;17749;51.962;8.560;2023-04-30T09:09:07;5.75;;;2.42;;
31095;SDS011;17749;51.962;8.560;2023-04-30T09:11:34;8.88;;;4.05;;
31095;SDS011;17749;51.962;8.560;2023-04-30T09:14:01;7.25;;;3.53;;
31095;SDS011;17749;51.962;8.560;2023-04-30T09:16:29;7.78;;;4.20;;
31095;SDS011;17749;51.962;8.560;2023-04-30T09:19:23;6.05;;;2.60;;
31095;SDS011;17749;51.962;8.560;2023-04-30T09:21:51;5.72;;;2.35;;
31095;SDS011;17749;51.962;8.560;2023-04-30T09:24:18;9.95;;;3.10;;
31095;SDS011;17749;51.962;8.560;2023-04-30T09:26:45;11.55;;;3.00;;
31095;SDS011;17749;51.962;8.560;2023-04-30T09:29:12;12.73;;;3.17;;
31095;SDS011;17749;51.962;8.560;2023-04-30T09:31:43;7.88;;;2.65;;
31095;SDS011;17749;51.962;8.560;2023-04-30T09:34:12;7.13;;;2.92;;
31095;SDS011;17749;51.962;8.560;2023-04-30T09:36:53;4.25;;;2.13;;
31095;SDS011;17749;51.962;8.560;2023-04-30T09:39:20;7.75;;;2.78;;
31095;SDS011;17749;51.962;8.560;2023-04-30T09:41:49;7.15;;;2.35;;
31095;SDS011;17749;51.962;8.560;2023-04-30T09:44:30;10.00;;;2.70;;
31095;SDS011;17749;51.962;8.560;2023-04-30T09:46:57;11.50;;;3.03;;
31095;SDS011;17749;51.962;8.560;2023-04-30T09:49:25;10.98;;;3.25;;
31095;SDS011;17749;51.962;8.560;2023-04-30T09:51:56;5.35;;;2.30;;
31095;SDS011;17749;51.962;8.560;2023-04-30T09:54:28;6.07;;;2.28;;
31095;SDS011;17749;51.962;8.560;2023-04-30T09:56:57;8.05;;;2.08;;
31095;SDS011;17749;51.962;8.560;2023-04-30T09:59:32;7.30;;;2.28;;
31095;SDS011;17749;51.962;8.560;2023-04-30T10:04:33;5.35;;;2.45;;
31095;SDS011;17749;51.962;8.560;2023-04-30T10:07:08;6.57;;;2.67;;
31095;SDS011;17749;51.962;8.560;2023-04-30T10:09:50;8.27;;;3.00;;
31095;SDS011;17749;51.962;8.560;2023-04-30T10:12:25;7.32;;;2.20;;
31095;SDS011;17749;51.962;8.560;2023-04-30T10:15:04;7.93;;;3.63;;
31095;SDS011;17749;51.962;8.560;2023-04-30T10:17:37;5.07;;;2.22;;
31095;SDS011;17749;51.962;8.560;2023-04-30T10:20:08;6.40;;;2.70;;
31095;SDS011;17749;51.962;8.560;2023-04-30T10:22:36;6.37;;;2.37;;
31095;SDS011;17749;51.962;8.560;2023-04-30T10:25:04;6.38;;;1.77;;
31095;SDS011;17749;51.962;8.560;2023-04-30T10:27:31;3.50;;;2.05;;
31095;SDS011;17749;51.962;8.560;2023-04-30T10:30:00;7.93;;;3.00;;
31095;SDS011;17749;51.962;8.560;2023-04-30T10:32:32;8.07;;;2.22;;
31095;SDS011;17749;51.962;8.560;2023-04-30T10:35:16;4.47;;;2.13;;
31095;SDS011;17749;51.962;8.560;2023-04-30T10:37:52;3.97;;;1.45;;
31095;SDS011;17749;51.962;8.560;2023-04-30T10:40:25;4.15;;;1.70;;
31095;SDS011;17749;51.962;8.560;2023-04-30T10:45:54;6.72;;;1.95;;
31095;SDS011;17749;51.962;8.560;2023-04-30T10:48:14;4.20;;;1.77;;
31095;SDS011;17749;51.962;8.560;2023-04-30T10:50:56;4.68;;;1.45;;
31095;SDS011;17749;51.962;8.560;2023-04-30T10:53:25;10.90;;;1.88;;
31095;SDS011;17749;51.962;8.560;2023-04-30T10:55:59;6.68;;;2.03;;
31095;SDS011;17749;51.962;8.560;2023-04-30T10:58:33;5.80;;;1.80;;
31095;SDS011;17749;51.962;8.560;2023-04-30T11:01:05;5.43;;;2.28;;
31095;SDS011;17749;51.962;8.560;2023-04-30T11:03:36;5.72;;;1.90;;
31095;SDS011;17749;51.962;8.560;2023-04-30T11:08:43;5.43;;;1.75;;
31095;SDS011;17749;51.962;8.560;2023-04-30T11:11:11;6.22;;;2.00;;
31095;SDS011;17749;51.962;8.560;2023-04-30T11:13:44;6.57;;;2.40;;
31095;SDS011;17749;51.962;8.560;2023-04-30T11:19:11;4.97;;;1.88;;
31095;SDS011;17749;51.962;8.560;2023-04-30T11:21:40;6.43;;;2.03;;
31095;SDS011;17749;51.962;8.560;2023-04-30T11:24:08;4.25;;;1.70;;
31095;SDS011;17749;51.962;8.560;2023-04-30T11:29:34;4.32;;;1.70;;
31095;SDS011;17749;51.962;8.560;2023-04-30T11:32:03;4.72;;;2.30;;
31095;SDS011;17749;51.962;8.560;2023-04-30T11:34:30;3.95;;;2.00;;
31095;SDS011;17749;51.962;8.560;2023-04-30T11:36:59;5.28;;;1.90;;
31095;SDS011;17749;51.962;8.560;2023-04-30T11:39:28;3.60;;;2.17;;
31095;SDS011;17749;51.962;8.560;2023-04-30T11:42:01;4.55;;;2.03;;
31095;SDS011;17749;51.962;8.560;2023-04-30T11:44:29;4.20;;;1.67;;
31095;SDS011;17749;51.962;8.560;2023-04-30T11:46:56;4.60;;;2.00;;
31095;SDS011;17749;51.962;8.560;2023-04-30T11:49:23;7.78;;;1.95;;
31095;SDS011;17749;51.962;8.560;2023-04-30T11:51:50;5.30;;;1.70;;
31095;SDS011;17749;51.962;8.560;2023-04-30T11:54:18;3.95;;;1.80;;
31095;SDS011;17749;51.962;8.560;2023-04-30T11:56:46;5.30;;;1.30;;
31095;SDS011;17749;51.962;8.560;2023-04-30T11:59:18;4.90;;;1.60;;
31095;SDS011;17749;51.962;8.560;2023-04-30T12:01:45;2.10;;;1.30;;
31095;SDS011;17749;51.962;8.560;2023-04-30T12:04:12;4.85;;;1.83;;
31095;SDS011;17749;51.962;8.560;2023-04-30T12:06:39;4.40;;;1.80;;
31095;SDS011;17749;51.962;8.560;2023-04-30T12:09:07;4.00;;;2.00;;
31095;SDS011;17749;51.962;8.560;2023-04-30T12:11:39;4.18;;;2.05;;
31095;SDS011;17749;51.962;8.560;2023-04-30T12:14:07;6.93;;;2.20;;
31095;SDS011;17749;51.962;8.560;2023-04-30T12:19:17;4.63;;;1.90;;
31095;SDS011;17749;51.962;8.560;2023-04-30T12:21:45;4.60;;;2.22;;
31095;SDS011;17749;51.962;8.560;2023-04-30T12:24:14;2.53;;;1.55;;
31095;SDS011;17749;51.962;8.560;2023-04-30T12:26:43;3.55;;;1.73;;
31095;SDS011;17749;51.962;8.560;2023-04-30T12:29:15;3.03;;;1.65;;
31095;SDS011;17749;51.962;8.560;2023-04-30T12:31:43;5.20;;;2.00;;
31095;SDS011;17749;51.962;8.560;2023-04-30T12:34:12;4.07;;;2.13;;
31095;SDS011;17749;51.962;8.560;2023-04-30T12:36:40;4.28;;;1.83;;
31095;SDS011;17749;51.962;8.560;2023-04-30T12:39:11;5.05;;;1.67;;
31095;SDS011;17749;51.962;8.560;2023-04-30T12:44:18;3.50;;;1.95;;
31095;SDS011;17749;51.962;8.560;2023-04-30T12:46:57;6.05;;;1.98;;
31095;SDS011;17749;51.962;8.560;2023-04-30T12:49:32;6.13;;;1.70;;
31095;SDS011;17749;51.962;8.560;2023-04-30T12:52:09;3.25;;;1.92;;
31095;SDS011;17749;51.962;8.560;2023-04-30T12:54:38;5.03;;;2.45;;
31095;SDS011;17749;51.962;8.560;2023-04-30T12:57:06;4.60;;;2.42;;
31095;SDS011;17749;51.962;8.560;2023-04-30T12:59:38;6.60;;;2.17;;
31095;SDS011;17749;51.962;8.560;2023-04-30T13:02:22;8.07;;;2.55;;
31095;SDS011;17749;51.962;8.560;2023-04-30T13:04:51;5.30;;;2.08;;
31095;SDS011;17749;51.962;8.560;2023-04-30T13:07:18;6.90;;;2.55;;
31095;SDS011;17749;51.962;8.560;2023-04-30T13:09:46;6.13;;;2.35;;
31095;SDS011;17749;51.962;8.560;2023-04-30T13:12:13;5.88;;;1.83;;
31095;SDS011;17749;51.962;8.560;2023-04-30T13:14:40;4.65;;;1.92;;
31095;SDS011;17749;51.962;8.560;2023-04-30T13:17:07;4.90;;;2.10;;
31095;SDS011;17749;51.962;8.560;2023-04-30T13:19:36;6.22;;;2.17;;
31095;SDS011;17749;51.962;8.560;2023-04-30T13:22:03;4.78;;;1.70;;
31095;SDS011;17749;51.962;8.560;2023-04-30T13:24:30;7.07;;;1.67;;
31095;SDS011;17749;51.962;8.560;2023-04-30T13:27:00;3.88;;;1.83;;
31095;SDS011;17749;51.962;8.560;2023-04-30T13:29:28;4.43;;;1.60;;
31095;SDS011;17749;51.962;8.560;2023-04-30T13:31:55;4.40;;;1.85;;
31095;SDS011;17749;51.962;8.560;2023-04-30T13:34:22;5.47;;;1.92;;
31095;SDS011;17749;51.962;8.560;2023-04-30T13:36:50;6.82;;;2.30;;
31095;SDS011;17749;51.962;8.560;2023-04-30T13:39:19;5.90;;;1.88;;
31095;SDS011;17749;51.962;8.560;2023-04-30T13:41:47;3.60;;;1.70;;
31095;SDS011;17749;51.962;8.560;2023-04-30T13:44:14;5.55;;;1.80;;
31095;SDS011;17749;51.962;8.560;2023-04-30T13:46:42;8.38;;;2.28;;
31095;SDS011;17749;51.962;8.560;2023-04-30T13:49:09;3.05;;;1.58;;
31095;SDS011;17749;51.962;8.560;2023-04-30T13:51:37;4.95;;;1.80;;
31095;SDS011;17749;51.962;8.560;2023-04-30T13:54:04;3.35;;;1.40;;
31095;SDS011;17749;51.962;8.560;2023-04-30T13:56:32;3.80;;;0.90;;
31095;SDS011;17749;51.962;8.560;2023-04-30T13:58:59;2.40;;;1.48;;
31095;SDS011;17749;51.962;8.560;2023-04-30T14:01:26;2.30;;;1.45;;
31095;SDS011;17749;51.962;8.560;2023-04-30T14:03:54;4.43;;;1.42;;
31095;SDS011;17749;51.962;8.560;2023-04-30T14:06:21;2.15;;;1.27;;
31095;SDS011;17749;51.962;8.560;2023-04-30T14:08:49;2.78;;;1.20;;
31095;SDS011;17749;51.962;8.560;2023-04-30T14:11:16;2.65;;;1.38;;
31095;SDS011;17749;51.962;8.560;2023-04-30T14:13:43;3.38;;;0.95;;
31095;SDS011;17749;51.962;8.560;2023-04-30T14:16:10;4.68;;;1.50;;
31095;SDS011;17749;51.962;8.560;2023-04-30T14:18:40;4.22;;;1.35;;
31095;SDS011;17749;51.962;8.560;2023-04-30T14:21:07;3.25;;;1.13;;
31095;SDS011;17749;51.962;8.560;2023-04-30T14:23:35;1.85;;;0.90;;
31095;SDS011;17749;51.962;8.560;2023-04-30T14:26:04;2.45;;;0.80;;
31095;SDS011;17749;51.962;8.560;2023-04-30T14:28:31;2.03;;;1.20;;
31095;SDS011;17749;51.962;8.560;2023-04-30T14:30:59;3.20;;;1.60;;
31095;SDS011;17749;51.962;8.560;2023-04-30T14:33:26;2.13;;;1.10;;
31095;SDS011;17749;51.962;8.560;2023-04-30T14:35:53;3.17;;;1.35;;
31095;SDS011;17749;51.962;8.560;2023-04-30T14:38:20;3.78;;;1.38;;
31095;SDS011;17749;51.962;8.560;2023-04-30T14:40:47;4.47;;;1.85;;
31095;SDS011;17749;51.962;8.560;2023-04-30T14:43:14;2.97;;;1.38;;
31095;SDS011;17749;51.962;8.560;2023-04-30T14:45:42;3.35;;;1.17;;
31095;SDS011;17749;51.962;8.560;2023-04-30T14:48:11;2.75;;;1.27;;
31095;SDS011;17749;51.962;8.560;2023-04-30T14:50:39;3.30;;;1.80;;
31095;SDS011;17749;51.962;8.560;2023-04-30T14:53:06;10.90;;;1.58;;
31095;SDS011;17749;51.962;8.560;2023-04-30T14:55:35;3.20;;;1.23;;
31095;SDS011;17749;51.962;8.560;2023-04-30T14:58:02;4.80;;;1.60;;
31095;SDS011;17749;51.962;8.560;2023-04-30T15:00:30;3.45;;;1.50;;
31095;SDS011;17749;51.962;8.560;2023-04-30T15:02:59;3.33;;;1.60;;
31095;SDS011;17749;51.962;8.560;2023-04-30T15:05:27;2.03;;;1.00;;
31095;SDS011;17749;51.962;8.560;2023-04-30T15:07:55;4.47;;;1.80;;
31095;SDS011;17749;51.962;8.560;2023-04-30T15:10:21;2.75;;;1.45;;
31095;SDS011;17749;51.962;8.560;2023-04-30T15:12:49;5.18;;;1.20;;
31095;SDS011;17749;51.962;8.560;2023-04-30T15:15:16;4.78;;;1.40;;
31095;SDS011;17749;51.962;8.560;2023-04-30T15:17:44;2.30;;;1.05;;
31095;SDS011;17749;51.962;8.560;2023-04-30T15:20:12;3.15;;;1.25;;
31095;SDS011;17749;51.962;8.560;2023-04-30T15:22:39;4.65;;;1.75;;
31095;SDS011;17749;51.962;8.560;2023-04-30T15:25:06;2.97;;;1.60;;
31095;SDS011;17749;51.962;8.560;2023-04-30T15:27:33;3.03;;;1.55;;
31095;SDS011;17749;51.962;8.560;2023-04-30T15:30:02;4.53;;;2.85;;
31095;SDS011;17749;51.962;8.560;2023-04-30T15:32:38;7.90;;;2.40;;
31095;SDS011;17749;51.962;8.560;2023-04-30T15:35:07;5.00;;;1.65;;
31095;SDS011;17749;51.962;8.560;2023-04-30T15:37:36;4.53;;;1.90;;
31095;SDS011;17749;51.962;8.560;2023-04-30T15:40:04;6.35;;;1.65;;
31095;SDS011;17749;51.962;8.560;2023-04-30T15:43:08;4.20;;;2.10;;
31095;SDS011;17749;51.962;8.560;2023-04-30T15:45:36;13.77;;;2.50;;
31095;SDS011;17749;51.962;8.560;2023-04-30T15:48:03;3.42;;;1.80;;
31095;SDS011;17749;51.962;8.560;2023-04-30T15:50:42;5.50;;;2.17;;
31095;SDS011;17749;51.962;8.560;2023-04-30T15:53:09;4.07;;;1.65;;
31095;SDS011;17749;51.962;8.560;2023-04-30T15:55:36;5.57;;;2.30;;
31095;SDS011;17749;51.962;8.560;2023-04-30T15:58:06;7.50;;;2.65;;
31095;SDS011;17749;51.962;8.560;2023-04-30T16:00:33;4.80;;;2.13;;
31095;SDS011;17749;51.962;8.560;2023-04-30T16:03:01;7.35;;;2.88;;
31095;SDS011;17749;51.962;8.560;2023-04-30T16:05:32;3.58;;;2.25;;
31095;SDS011;17749;51.962;8.560;2023-04-30T16:08:19;6.10;;;2.03;;
31095;SDS011;17749;51.962;8.560;2023-04-30T16:11:01;6.07;;;1.92;;
31095;SDS011;17749;51.962;8.560;2023-04-30T16:13:29;10.60;;;2.25;;
31095;SDS011;17749;51.962;8.560;2023-04-30T16:15:56;5.28;;;2.08;;
31095;SDS011;17749;51.962;8.560;2023-04-30T16:18:29;4.57;;;1.98;;
31095;SDS011;17749;51.962;8.560;2023-04-30T16:20:59;5.22;;;2.00;;
31095;SDS011;17749;51.962;8.560;2023-04-30T16:23:28;6.75;;;2.20;;
31095;SDS011;17749;51.962;8.560;2023-04-30T16:25:54;5.20;;;2.05;;
31095;SDS011;17749;51.962;8.560;2023-04-30T16:28:22;4.35;;;2.08;;
31095;SDS011;17749;51.962;8.560;2023-04-30T16:30:52;8.05;;;2.58;;
31095;SDS011;17749;51.962;8.560;2023-04-30T16:33:37;7.93;;;2.13;;
31095;SDS011;17749;51.962;8.560;2023-04-30T16:36:04;5.88;;;1.98;;
31095;SDS011;17749;51.962;8.560;2023-04-30T16:38:31;6.40;;;2.17;;
31095;SDS011;17749;51.962;8.560;2023-04-30T16:40:58;5.60;;;1.42;;
31095;SDS011;17749;51.962;8.560;2023-04-30T16:43:26;7.38;;;2.50;;
31095;SDS011;17749;51.962;8.560;2023-04-30T16:45:54;3.90;;;1.60;;
31095;SDS011;17749;51.962;8.560;2023-04-30T16:48:22;5.20;;;2.17;;
31095;SDS011;17749;51.962;8.560;2023-04-30T16:50:50;6.65;;;2.05;;
31095;SDS011;17749;51.962;8.560;2023-04-30T16:53:17;4.63;;;1.58;;
31095;SDS011;17749;51.962;8.560;2023-04-30T16:55:58;5.13;;;1.50;;
31095;SDS011;17749;51.962;8.560;2023-04-30T16:58:34;3.25;;;1.88;;
31095;SDS011;17749;51.962;8.560;2023-04-30T17:01:15;5.10;;;1.90;;
31095;SDS011;17749;51.962;8.560;2023-04-30T17:03:46;8.35;;;2.10;;
31095;SDS011;17749;51.962;8.560;2023-04-30T17:06:13;5.43;;;1.98;;
31095;SDS011;17749;51.962;8.560;2023-04-30T17:08:45;4.90;;;2.10;;
31095;SDS011;17749;51.962;8.560;2023-04-30T17:11:29;5.07;;;2.08;;
31095;SDS011;17749;51.962;8.560;2023-04-30T17:13:57;6.78;;;2.25;;
31095;SDS011;17749;51.962;8.560;2023-04-30T17:16:24;5.13;;;2.45;;
31095;SDS011;17749;51.962;8.560;2023-04-30T17:18:51;3.25;;;1.33;;
31095;SDS011;17749;51.962;8.560;2023-04-30T17:21:17;7.18;;;2.35;;
31095;SDS011;17749;51.962;8.560;2023-04-30T17:23:44;3.92;;;2.03;;
31095;SDS011;17749;51.962;8.560;2023-04-30T17:26:11;3.90;;;2.08;;
31095;SDS011;17749;51.962;8.560;2023-04-30T17:28:38;4.28;;;2.20;;
31095;SDS011;17749;51.962;8.560;2023-04-30T17:31:05;5.18;;;2.05;;
31095;SDS011;17749;51.962;8.560;2023-04-30T17:33:33;5.28;;;2.00;;
31095;SDS011;17749;51.962;8.560;2023-04-30T17:35:59;4.40;;;2.10;;
31095;SDS011;17749;51.962;8.560;2023-04-30T17:38:26;3.75;;;1.88;;
31095;SDS011;17749;51.962;8.560;2023-04-30T17:40:53;5.13;;;1.65;;
31095;SDS011;17749;51.962;8.560;2023-04-30T17:43:22;3.95;;;2.03;;
31095;SDS011;17749;51.962;8.560;2023-04-30T17:45:49;4.95;;;2.10;;
31095;SDS011;17749;51.962;8.560;2023-04-30T17:48:19;6.97;;;2.00;;
31095;SDS011;17749;51.962;8.560;2023-04-30T17:50:46;3.72;;;1.98;;
31095;SDS011;17749;51.962;8.560;2023-04-30T17:53:13;5.18;;;2.05;;
31095;SDS011;17749;51.962;8.560;2023-04-30T17:55:40;6.05;;;1.90;;
31095;SDS011;17749;51.962;8.560;2023-04-30T17:58:07;3.78;;;2.00;;
31095;SDS011;17749;51.962;8.560;2023-04-30T18:00:37;3.00;;;1.70;;
31095;SDS011;17749;51.962;8.560;2023-04-30T18:03:04;3.15;;;1.70;;
31095;SDS011;17749;51.962;8.560;2023-04-30T18:05:32;8.00;;;2.30;;
31095;SDS011;17749;51.962;8.560;2023-04-30T18:08:01;5.53;;;2.33;;
31095;SDS011;17749;51.962;8.560;2023-04-30T18:10:28;6.18;;;2.60;;
31095;SDS011;17749;51.962;8.560;2023-04-30T18:12:56;8.90;;;3.90;;
31095;SDS011;17749;51.962;8.560;2023-04-30T18:15:24;9.65;;;3.40;;
31095;SDS011;17749;51.962;8.560;2023-04-30T18:17:51;5.38;;;2.42;;
31095;SDS011;17749;51.962;8.560;2023-04-30T18:20:19;6.45;;;2.08;;
31095;SDS011;17749;51.962;8.560;2023-04-30T18:22:47;5.68;;;2.20;;
31095;SDS011;17749;51.962;8.560;2023-04-30T18:25:14;4.13;;;1.90;;
31095;SDS011;17749;51.962;8.560;2023-04-30T18:27:42;6.63;;;2.72;;
31095;SDS011;17749;51.962;8.560;2023-04-30T18:30:10;7.15;;;2.00;;
31095;SDS011;17749;51.962;8.560;2023-04-30T18:32:38;6.05;;;2.03;;
31095;SDS011;17749;51.962;8.560;2023-04-30T18:35:07;5.65;;;1.88;;
31095;SDS011;17749;51.962;8.560;2023-04-30T18:37:34;3.53;;;1.88;;
31095;SDS011;17749;51.962;8.560;2023-04-30T18:40:01;3.28;;;1.48;;
31095;SDS011;17749;51.962;8.560;2023-04-30T18:42:29;3.45;;;2.30;;
31095;SDS011;17749;51.962;8.560;2023-04-30T18:44:56;6.63;;;2.40;;
31095;SDS011;17749;51.962;8.560;2023-04-30T18:47:23;6.05;;;2.90;;
31095;SDS011;17749;51.962;8.560;2023-04-30T18:49:50;7.45;;;4.10;;
31095;SDS011;17749;51.962;8.560;2023-04-30T18:52:17;4.85;;;2.97;;
31095;SDS011;17749;51.962;8.560;2023-04-30T18:54:44;5.07;;;3.10;;
31095;SDS011;17749;51.962;8.560;2023-04-30T18:57:15;4.35;;;2.90;;
31095;SDS011;17749;51.962;8.560;2023-04-30T18:59:44;10.77;;;3.70;;
31095;SDS011;17749;51.962;8.560;2023-04-30T19:02:10;5.78;;;2.88;;
31095;SDS011;17749;51.962;8.560;2023-04-30T19:04:38;4.88;;;2.00;;
31095;SDS011;17749;51.962;8.560;2023-04-30T19:07:05;5.38;;;2.20;;
31095;SDS011;17749;51.962;8.560;2023-04-30T19:09:32;6.55;;;2.38;;
31095;SDS011;17749;51.962;8.560;2023-04-30T19:12:02;6.13;;;2.05;;
31095;SDS011;17749;51.962;8.560;2023-04-30T19:14:29;3.75;;;1.83;;
31095;SDS011;17749;51.962;8.560;2023-04-30T19:16:56;5.93;;;2.20;;
31095;SDS011;17749;51.962;8.560;2023-04-30T19:19:23;7.22;;;2.83;;
31095;SDS011;17749;51.962;8.560;2023-04-30T19:21:51;6.28;;;2.53;;
31095;SDS011;17749;51.962;8.560;2023-04-30T19:24:19;6.70;;;2.50;;
31095;SDS011;17749;51.962;8.560;2023-04-30T19:26:46;6.95;;;2.28;;
31095;SDS011;17749;51.962;8.560;2023-04-30T19:29:15;6.78;;;2.58;;
31095;SDS011;17749;51.962;8.560;2023-04-30T19:31:42;6.75;;;3.22;;
31095;SDS011;17749;51.962;8.560;2023-04-30T19:34:09;9.63;;;3.55;;
31095;SDS011;17749;51.962;8.560;2023-04-30T19:36:36;6.80;;;1.98;;
31095;SDS011;17749;51.962;8.560;2023-04-30T19:39:03;7.38;;;2.38;;
31095;SDS011;17749;51.962;8.560;2023-04-30T19:41:32;9.27;;;2.67;;
31095;SDS011;17749;51.962;8.560;2023-04-30T19:43:59;5.00;;;2.78;;
31095;SDS011;17749;51.962;8.560;2023-04-30T19:46:26;4.50;;;2.67;;
31095;SDS011;17749;51.962;8.560;2023-04-30T19:48:53;8.02;;;2.50;;
31095;SDS011;17749;51.962;8.560;2023-04-30T19:54:45;5.57;;;2.72;;
31095;SDS011;17749;51.962;8.560;2023-04-30T19:57:18;5.97;;;2.38;;
31095;SDS011;17749;51.962;8.560;2023-04-30T19:59:45;3.72;;;1.90;;
31095;SDS011;17749;51.962;8.560;2023-04-30T20:02:13;7.47;;;2.28;;
31095;SDS011;17749;51.962;8.560;2023-04-30T20:04:40;4.80;;;2.22;;
31095;SDS011;17749;51.962;8.560;2023-04-30T20:07:07;5.70;;;2.38;;
31095;SDS011;17749;51.962;8.560;2023-04-30T20:09:34;5.28;;;3.25;;
31095;SDS011;17749;51.962;8.560;2023-04-30T20:12:02;5.90;;;2.15;;
31095;SDS011;17749;51.962;8.560;2023-04-30T20:14:30;9.95;;;2.90;;
31095;SDS011;17749;51.962;8.560;2023-04-30T20:16:57;3.53;;;1.98;;
31095;SDS011;17749;51.962;8.560;2023-04-30T20:19:24;4.05;;;2.20;;